createdAt,value
2018-02-12T00:02:22.490Z,19.80
2018-02-12T00:04:50.049Z,20.33
2018-02-12T00:07:17.608Z,19.57
2018-02-12T00:09:45.168Z,18.13
2018-02-12T00:12:12.728Z,23.87
2018-02-12T00:14:40.287Z,22.30
2018-02-12T00:17:07.846Z,21.60
2018-02-12T00:19:35.303Z,25.13
2018-02-12T00:22:02.797Z,24.50
2018-02-12T00:24:30.319Z,22.17
2018-02-12T00:26:57.879Z,20.73
2018-02-12T00:29:25.438Z,23.20
2018-02-12T00:31:53.818Z,22.77
2018-02-12T00:34:21.377Z,21.13
2018-02-12T00:36:48.936Z,23.63
2018-02-12T00:39:16.495Z,21.43
2018-02-12T00:41:44.055Z,24.30
2018-02-12T00:44:11.614Z,23.33
2018-02-12T00:46:39.173Z,22.60
2018-02-12T00:49:06.668Z,23.40
2018-02-12T00:51:34.197Z,24.07
2018-02-12T00:54:01.750Z,24.90
2018-02-12T00:56:29.207Z,22.10
2018-02-12T00:58:56.766Z,25.00
2018-02-12T01:01:24.259Z,26.00
2018-02-12T01:03:51.782Z,23.07
2018-02-12T01:06:19.342Z,22.37
2018-02-12T01:08:46.835Z,27.60
2018-02-12T01:11:14.361Z,20.10
2018-02-12T01:13:41.956Z,25.13
2018-02-12T01:16:09.477Z,24.93
2018-02-12T01:18:37.037Z,27.17
2018-02-12T01:21:04.596Z,31.77
2018-02-12T01:23:32.155Z,31.17
2018-02-12T01:25:59.715Z,33.30
2018-02-12T01:28:27.274Z,27.27
2018-02-12T01:30:54.833Z,27.30
2018-02-12T01:33:22.344Z,24.30
2018-02-12T01:35:50.055Z,23.90
2018-02-12T01:38:17.614Z,28.10
2018-02-12T01:40:45.048Z,24.90
2018-02-12T01:43:12.564Z,25.00
2018-02-12T01:45:40.088Z,23.90
2018-02-12T01:48:07.647Z,26.63
2018-02-12T01:50:35.206Z,24.57
2018-02-12T01:53:02.644Z,25.97
2018-02-12T01:55:30.171Z,26.80
2018-02-12T01:57:57.782Z,22.40
2018-02-12T02:00:25.343Z,25.23
2018-02-12T02:02:52.907Z,25.33
2018-02-12T02:05:20.564Z,26.03
2018-02-12T02:07:48.056Z,25.53
2018-02-12T02:10:15.580Z,25.80
2018-02-12T02:12:43.139Z,27.10
2018-02-12T02:15:10.700Z,27.47
2018-02-12T02:17:38.155Z,29.33
2018-02-12T02:20:05.716Z,27.30
2018-02-12T02:22:33.274Z,28.73
2018-02-12T02:25:00.732Z,27.30
2018-02-12T02:27:28.234Z,25.30
2018-02-12T02:29:55.748Z,25.33
2018-02-12T02:32:23.240Z,30.27
2018-02-12T02:34:50.867Z,29.20
2018-02-12T02:37:18.361Z,28.90
2018-02-12T02:39:45.883Z,27.43
2018-02-12T02:42:13.443Z,25.80
2018-02-12T02:44:40.899Z,27.97
2018-02-12T02:47:08.392Z,25.03
2018-02-12T02:49:36.018Z,28.00
2018-02-12T02:52:03.477Z,27.60
2018-02-12T02:54:31.046Z,26.90
2018-02-12T02:56:58.595Z,28.03
2018-02-12T02:59:26.156Z,30.17
2018-02-12T03:01:53.648Z,30.90
2018-02-12T03:04:21.272Z,28.07
2018-02-12T03:06:48.831Z,29.60
2018-02-12T03:09:16.324Z,32.80
2018-02-12T03:11:43.792Z,27.63
2018-02-12T03:14:11.192Z,30.83
2018-02-12T03:16:38.762Z,26.03
2018-02-12T03:19:06.205Z,26.67
2018-02-12T03:21:33.779Z,24.17
2018-02-12T03:24:01.338Z,27.10
2018-02-12T03:26:28.898Z,28.57
2018-02-12T03:28:56.457Z,29.40
2018-02-12T03:31:23.915Z,27.90
2018-02-12T03:33:51.348Z,28.20
2018-02-12T03:36:18.760Z,29.83
2018-02-12T03:38:46.285Z,27.17
2018-02-12T03:41:13.691Z,32.77
2018-02-12T03:43:41.133Z,28.40
2018-02-12T03:46:08.603Z,29.10
2018-02-12T03:48:36.048Z,28.93
2018-02-12T03:51:03.503Z,27.27
2018-02-12T03:53:31.129Z,25.97
2018-02-12T03:55:58.689Z,30.53
2018-02-12T03:58:26.248Z,28.97
2018-02-12T04:00:53.635Z,25.77
2018-02-12T04:03:21.097Z,25.57
2018-02-12T04:05:48.621Z,28.03
2018-02-12T04:08:16.181Z,22.50
2018-02-12T04:10:43.636Z,24.00
2018-02-12T04:13:11.196Z,22.30
2018-02-12T04:15:38.755Z,23.10
2018-02-12T04:18:06.212Z,22.70
2018-02-12T04:20:33.675Z,28.40
2018-02-12T04:23:01.166Z,22.67
2018-02-12T04:25:28.688Z,24.43
2018-02-12T04:27:56.246Z,22.33
2018-02-12T04:30:23.804Z,30.10
2018-02-12T04:32:51.262Z,25.67
2018-02-12T04:35:19.333Z,23.23
2018-02-12T04:37:46.893Z,26.30
2018-02-12T04:40:14.308Z,23.00
2018-02-12T04:42:41.909Z,21.80
2018-02-12T04:45:09.468Z,27.27
2018-02-12T04:47:36.964Z,24.97
2018-02-12T04:50:04.588Z,30.33
2018-02-12T04:52:32.147Z,22.17
2018-02-12T04:54:59.653Z,24.50
2018-02-12T04:57:27.244Z,26.13
2018-02-12T04:59:54.668Z,22.40
2018-02-12T05:02:22.095Z,26.87
2018-02-12T05:04:49.555Z,26.80
2018-02-12T05:07:16.962Z,25.20
2018-02-12T05:09:44.388Z,25.87
2018-02-12T05:12:11.940Z,23.33
2018-02-12T05:14:39.376Z,25.53
2018-02-12T05:17:06.799Z,31.70
2018-02-12T05:19:34.379Z,23.80
2018-02-12T05:22:01.939Z,22.63
2018-02-12T05:24:29.498Z,27.93
2018-02-12T05:26:57.058Z,21.47
2018-02-12T05:29:24.616Z,24.60
2018-02-12T05:31:52.075Z,26.20
2018-02-12T05:34:19.633Z,25.93
2018-02-12T05:36:47.193Z,21.53
2018-02-12T05:39:14.752Z,26.63
2018-02-12T05:41:42.311Z,24.70
2018-02-12T05:44:09.871Z,31.13
2018-02-12T05:46:37.431Z,26.23
2018-02-12T05:49:04.990Z,24.70
2018-02-12T05:51:32.447Z,25.77
2018-02-12T05:53:59.847Z,26.77
2018-02-12T05:56:27.464Z,27.40
2018-02-12T05:58:54.923Z,26.73
2018-02-12T06:01:22.377Z,25.47
2018-02-12T06:03:50.041Z,25.90
2018-02-12T06:06:17.599Z,25.67
2018-02-12T06:08:45.158Z,26.57
2018-02-12T06:11:12.652Z,23.77
2018-02-12T06:13:40.175Z,27.93
2018-02-12T06:16:07.668Z,27.60
2018-02-12T06:18:35.294Z,27.17
2018-02-12T06:21:02.751Z,29.13
2018-02-12T06:23:30.311Z,25.90
2018-02-12T06:25:57.869Z,29.70
2018-02-12T06:28:25.326Z,31.07
2018-02-12T06:30:52.898Z,29.07
2018-02-12T06:33:20.381Z,26.77
2018-02-12T06:35:48.106Z,29.90
2018-02-12T06:38:15.669Z,24.37
2018-02-12T06:40:43.226Z,26.97
2018-02-12T06:43:10.786Z,24.87
2018-02-12T06:45:38.345Z,25.67
2018-02-12T06:48:05.770Z,26.17
2018-02-12T06:50:33.360Z,25.90
2018-02-12T06:53:00.920Z,29.97
2018-02-12T06:55:28.481Z,29.80
2018-02-12T06:57:55.937Z,29.13
2018-02-12T07:00:23.602Z,26.87
2018-02-12T07:02:51.012Z,27.97
2018-02-12T07:05:19.233Z,24.40
2018-02-12T07:07:46.790Z,25.30
2018-02-12T07:10:14.349Z,25.90
2018-02-12T07:12:42.566Z,24.90
2018-02-12T07:15:10.047Z,28.77
2018-02-12T07:17:37.504Z,27.63
2018-02-12T07:20:04.940Z,30.63
2018-02-12T07:22:32.418Z,26.40
2018-02-12T07:24:59.840Z,25.13
2018-02-12T07:27:27.257Z,24.70
2018-02-12T07:29:54.744Z,24.67
2018-02-12T07:32:22.151Z,26.40
2018-02-12T07:34:49.585Z,21.13
2018-02-12T07:37:17.036Z,32.83
2018-02-12T07:39:44.512Z,25.63
2018-02-12T07:42:11.990Z,23.30
2018-02-12T07:44:39.440Z,22.80
2018-02-12T07:47:06.892Z,30.10
2018-02-12T07:49:34.323Z,21.07
2018-02-12T07:52:01.768Z,22.17
2018-02-12T07:54:29.177Z,23.10
2018-02-12T07:56:56.704Z,20.93
2018-02-12T07:59:24.361Z,22.77
2018-02-12T08:01:52.625Z,25.70
2018-02-12T08:04:20.659Z,25.90
2018-02-12T08:06:49.092Z,24.80
2018-02-12T08:09:17.416Z,21.30
2018-02-12T08:11:45.899Z,20.30
2018-02-12T08:14:13.866Z,20.23
2018-02-12T08:16:42.290Z,17.93
2018-02-12T08:19:10.316Z,22.07
2018-02-12T08:21:38.491Z,19.20
2018-02-12T08:24:06.601Z,22.20
2018-02-12T08:26:34.631Z,25.27
2018-02-12T08:29:02.499Z,20.93
2018-02-12T08:31:30.366Z,24.90
2018-02-12T08:33:58.131Z,23.40
2018-02-12T08:36:26.359Z,25.27
2018-02-12T08:38:54.170Z,30.90
2018-02-12T08:41:21.734Z,25.97
2018-02-12T08:43:49.957Z,24.07
2018-02-12T08:46:18.487Z,23.40
2018-02-12T08:48:46.817Z,27.50
2018-02-12T08:51:15.141Z,25.60
2018-02-12T08:53:43.321Z,25.90
2018-02-12T08:56:10.808Z,24.07
2018-02-12T08:58:38.212Z,24.47
2018-02-12T09:01:05.787Z,25.27
2018-02-12T09:03:33.346Z,21.20
2018-02-12T09:06:00.907Z,22.53
2018-02-12T09:08:28.570Z,22.60
2018-02-12T09:10:56.575Z,24.40
2018-02-12T09:13:24.715Z,21.63
2018-02-12T09:15:53.051Z,23.90
2018-02-12T09:18:21.259Z,23.67
2018-02-12T09:20:49.516Z,21.20
2018-02-12T09:23:17.306Z,24.77
2018-02-12T09:25:45.583Z,31.10
2018-02-12T09:28:14.029Z,25.20
2018-02-12T09:30:41.826Z,22.83
2018-02-12T09:33:09.900Z,22.70
2018-02-12T09:35:38.278Z,22.10
2018-02-12T09:38:06.149Z,19.93
2018-02-12T09:40:34.011Z,22.03
2018-02-12T09:43:01.884Z,23.67
2018-02-12T09:45:29.538Z,24.73
2018-02-12T09:47:57.404Z,24.70
2018-02-12T09:50:25.477Z,23.07
2018-02-12T09:52:56.830Z,24.50
2018-02-12T09:55:24.796Z,22.80
2018-02-12T09:57:53.115Z,22.47
2018-02-12T10:00:21.500Z,22.50
2018-02-12T10:02:49.777Z,22.87
2018-02-12T10:05:17.893Z,23.40
2018-02-12T10:07:45.591Z,21.23
2018-02-12T10:10:13.234Z,27.23
2018-02-12T10:12:41.497Z,26.30
2018-02-12T10:15:09.015Z,25.07
2018-02-12T10:17:36.945Z,28.03
2018-02-12T10:20:04.526Z,24.97
2018-02-12T10:22:31.953Z,24.43
2018-02-12T10:24:59.406Z,23.10
2018-02-12T10:27:26.836Z,25.70
2018-02-12T10:29:54.244Z,26.90
2018-02-12T10:32:21.703Z,26.43
2018-02-12T10:34:49.129Z,24.03
2018-02-12T10:37:16.561Z,21.97
2018-02-12T10:39:44.131Z,22.77
2018-02-12T10:42:11.560Z,23.10
2018-02-12T10:44:39.009Z,25.83
2018-02-12T10:47:07.288Z,23.97
2018-02-12T10:49:34.684Z,25.60
2018-02-12T10:52:02.107Z,24.03
2018-02-12T10:54:29.560Z,20.30
2018-02-12T10:56:56.972Z,22.43
2018-02-12T10:59:24.434Z,24.13
2018-02-12T11:01:51.866Z,27.90
2018-02-12T11:04:19.679Z,22.60
2018-02-12T11:06:47.152Z,27.87
2018-02-12T11:09:14.589Z,23.80
2018-02-12T11:11:42.032Z,20.67
2018-02-12T11:14:09.500Z,23.63
2018-02-12T11:16:36.932Z,23.70
2018-02-12T11:19:04.348Z,21.10
2018-02-12T11:21:31.803Z,18.50
2018-02-12T11:23:59.288Z,23.13
2018-02-12T11:26:26.848Z,20.33
2018-02-12T11:28:54.410Z,23.17
2018-02-12T11:31:21.834Z,24.00
2018-02-12T11:33:49.236Z,16.03
2018-02-12T11:36:16.712Z,19.60
2018-02-12T11:38:44.172Z,19.73
2018-02-12T11:41:11.692Z,18.20
2018-02-12T11:43:39.251Z,15.33
2018-02-12T11:46:06.810Z,13.30
2018-02-12T11:48:34.385Z,16.73
2018-02-12T11:51:01.865Z,15.83
2018-02-12T11:53:29.322Z,17.90
2018-02-12T11:55:56.747Z,16.83
2018-02-12T11:58:24.301Z,15.53
2018-02-12T12:00:51.757Z,16.87
2018-02-12T12:03:19.324Z,17.47
2018-02-12T12:05:46.876Z,15.03
2018-02-12T12:08:14.367Z,15.63
2018-02-12T12:10:42.097Z,13.77
2018-02-12T12:13:09.659Z,18.60
2018-02-12T12:15:37.159Z,18.70
2018-02-12T12:18:04.776Z,15.90
2018-02-12T12:20:32.336Z,18.90
2018-02-12T12:22:59.997Z,20.17
2018-02-12T12:25:27.557Z,17.43
2018-02-12T12:27:55.115Z,18.13
2018-02-12T12:30:22.779Z,16.20
2018-02-12T12:32:50.337Z,19.93
2018-02-12T12:35:17.897Z,17.33
2018-02-12T12:37:45.559Z,17.40
2018-02-12T12:40:13.052Z,18.33
2018-02-12T12:42:40.508Z,16.90
2018-02-12T12:45:08.135Z,15.43
2018-02-12T12:47:35.694Z,13.97
2018-02-12T12:50:03.253Z,19.83
2018-02-12T12:52:30.824Z,12.40
2018-02-12T12:54:58.372Z,15.07
2018-02-12T12:57:25.980Z,14.30
2018-02-12T12:59:53.506Z,11.50
2018-02-12T13:02:21.050Z,12.73
2018-02-12T13:04:48.610Z,8.90
2018-02-12T13:07:16.272Z,10.67
2018-02-12T13:09:43.831Z,13.13
2018-02-12T13:12:11.390Z,7.23
2018-02-12T13:14:38.792Z,9.37
2018-02-12T13:17:06.304Z,8.87
2018-02-12T13:19:33.864Z,10.50
2018-02-12T13:22:01.323Z,11.57
2018-02-12T13:24:28.779Z,8.80
2018-02-12T13:26:56.441Z,8.70
2018-02-12T13:29:23.998Z,7.10
2018-02-12T13:31:51.698Z,9.63
2018-02-12T13:34:19.221Z,14.30
2018-02-12T13:36:46.826Z,9.83
2018-02-12T13:39:14.339Z,7.13
2018-02-12T13:41:41.898Z,12.33
2018-02-12T13:44:09.458Z,13.10
2018-02-12T13:46:36.916Z,10.37
2018-02-12T13:49:04.578Z,7.37
2018-02-12T13:51:32.136Z,10.53
2018-02-12T13:53:59.697Z,8.07
2018-02-12T13:56:27.390Z,7.03
2018-02-12T13:58:54.832Z,16.57
2018-02-12T14:01:22.374Z,8.40
2018-02-12T14:03:49.933Z,6.93
2018-02-12T14:06:17.391Z,14.60
2018-02-12T14:08:44.951Z,11.70
2018-02-12T14:11:12.509Z,8.90
2018-02-12T14:13:40.069Z,10.23
2018-02-12T14:16:07.482Z,9.93
2018-02-12T14:18:34.916Z,12.93
2018-02-12T14:21:02.367Z,9.30
2018-02-12T14:23:30.207Z,15.10
2018-02-12T14:25:57.604Z,9.87
2018-02-12T14:28:25.120Z,6.23
2018-02-12T14:30:52.678Z,8.03
2018-02-12T14:33:20.238Z,10.07
2018-02-12T14:35:47.797Z,10.20
2018-02-12T14:38:15.356Z,9.10
2018-02-12T14:40:42.805Z,9.60
2018-02-12T14:43:10.234Z,14.50
2018-02-12T14:45:37.833Z,12.47
2018-02-12T14:48:05.389Z,12.57
2018-02-12T14:50:32.948Z,11.90
2018-02-12T14:53:00.391Z,8.83
2018-02-12T14:55:27.896Z,8.87
2018-02-12T14:57:55.422Z,9.90
2018-02-12T15:00:23.084Z,8.77
2018-02-12T15:02:50.643Z,9.53
2018-02-12T15:05:18.137Z,11.07
2018-02-12T15:07:45.555Z,7.93
2018-02-12T15:10:13.000Z,11.60
2018-02-12T15:12:40.433Z,7.87
2018-02-12T15:15:07.833Z,8.67
2018-02-12T15:17:35.253Z,12.60
2018-02-12T15:20:02.708Z,11.67
2018-02-12T15:22:30.104Z,10.40
2018-02-12T15:24:57.502Z,12.80
2018-02-12T15:27:24.997Z,11.07
2018-02-12T15:29:52.464Z,10.90
2018-02-12T15:32:19.864Z,13.80
2018-02-12T15:34:47.312Z,13.33
2018-02-12T15:37:14.717Z,11.33
2018-02-12T15:39:42.165Z,13.63
2018-02-12T15:42:09.600Z,11.90
2018-02-12T15:44:36.997Z,12.77
2018-02-12T15:47:04.424Z,14.47
2018-02-12T15:49:31.875Z,10.33
2018-02-12T15:51:59.272Z,11.17
2018-02-12T15:54:26.728Z,14.27
2018-02-12T15:56:54.157Z,9.10
2018-02-12T15:59:21.584Z,10.13
2018-02-12T16:01:49.013Z,12.43
2018-02-12T16:04:16.411Z,13.47
2018-02-12T16:06:43.969Z,11.97
2018-02-12T16:09:11.367Z,11.53
2018-02-12T16:11:38.772Z,13.37
2018-02-12T16:14:06.236Z,13.43
2018-02-12T16:16:33.682Z,12.40
2018-02-12T16:19:01.152Z,14.53
2018-02-12T16:21:28.708Z,12.37
2018-02-12T16:23:56.144Z,9.10
2018-02-12T16:26:23.565Z,10.43
2018-02-12T16:28:51.104Z,14.53
2018-02-12T16:31:18.528Z,12.50
2018-02-12T16:33:46.116Z,15.90
2018-02-12T16:36:13.565Z,14.47
2018-02-12T16:38:41.024Z,11.77
2018-02-12T16:41:08.428Z,15.20
2018-02-12T16:43:35.853Z,13.20
2018-02-12T16:46:03.279Z,12.43
2018-02-12T16:48:30.737Z,13.37
2018-02-12T16:50:58.143Z,19.70
2018-02-12T16:53:25.544Z,17.97
2018-02-12T16:55:56.942Z,11.70
2018-02-12T16:58:24.436Z,16.63
2018-02-12T17:00:51.959Z,16.37
2018-02-12T17:03:19.519Z,19.73
2018-02-12T17:05:47.078Z,17.70
2018-02-12T17:08:14.505Z,16.60
2018-02-12T17:10:41.925Z,14.63
2018-02-12T17:13:09.449Z,9.87
2018-02-12T17:15:37.009Z,14.97
2018-02-12T17:18:04.504Z,11.17
2018-02-12T17:20:32.026Z,20.17
2018-02-12T17:22:59.585Z,18.57
2018-02-12T17:25:27.145Z,14.70
2018-02-12T17:27:54.703Z,15.90
2018-02-12T17:30:22.112Z,13.03
2018-02-12T17:32:49.618Z,13.50
2018-02-12T17:35:17.177Z,14.17
2018-02-12T17:37:44.736Z,22.90
2018-02-12T17:40:12.296Z,14.03
2018-02-12T17:42:39.753Z,12.37
2018-02-12T17:45:07.244Z,14.03
2018-02-12T17:47:34.707Z,16.73
2018-02-12T17:50:02.172Z,19.70
2018-02-12T17:52:29.786Z,16.10
2018-02-12T17:54:57.344Z,22.00
2018-02-12T17:57:24.839Z,19.53
2018-02-12T17:59:52.320Z,16.50
2018-02-12T18:02:19.922Z,15.57
2018-02-12T18:04:48.197Z,21.93
2018-02-12T18:07:15.763Z,16.67
2018-02-12T18:09:43.251Z,16.73
2018-02-12T18:12:10.670Z,17.90
2018-02-12T18:14:38.229Z,15.80
2018-02-12T18:17:06.302Z,18.30
2018-02-12T18:19:33.759Z,13.60
2018-02-12T18:22:01.421Z,18.50
2018-02-12T18:24:28.928Z,15.00
2018-02-12T18:26:56.436Z,12.47
2018-02-12T18:29:23.996Z,11.83
2018-02-12T18:31:51.458Z,14.83
2018-02-12T18:34:19.665Z,16.77
2018-02-12T18:36:47.120Z,20.57
2018-02-12T18:39:14.643Z,18.57
2018-02-12T18:41:42.203Z,14.33
2018-02-12T18:44:09.762Z,21.17
2018-02-12T18:46:37.322Z,14.83
2018-02-12T18:49:04.828Z,20.87
2018-02-12T18:51:32.339Z,13.93
2018-02-12T18:53:59.848Z,17.30
2018-02-12T18:56:27.305Z,17.07
2018-02-12T18:58:54.756Z,20.37
2018-02-12T19:01:22.156Z,16.70
2018-02-12T19:03:49.730Z,19.17
2018-02-12T19:06:17.286Z,19.53
2018-02-12T19:08:44.844Z,21.60
2018-02-12T19:11:12.405Z,24.90
2018-02-12T19:13:39.964Z,25.10
2018-02-12T19:16:07.523Z,24.60
2018-02-12T19:18:34.981Z,18.63
2018-02-12T19:21:02.540Z,14.60
2018-02-12T19:23:30.099Z,18.87
2018-02-12T19:25:57.658Z,19.70
2018-02-12T19:28:25.217Z,16.67
2018-02-12T19:30:52.711Z,18.43
2018-02-12T19:33:20.234Z,17.43
2018-02-12T19:35:47.798Z,16.90
2018-02-12T19:38:15.353Z,21.90
2018-02-12T19:40:42.911Z,17.70
2018-02-12T19:43:10.368Z,17.53
2018-02-12T19:45:37.826Z,16.67
2018-02-12T19:48:05.396Z,19.73
2018-02-12T19:50:32.956Z,18.27
2018-02-12T19:53:00.506Z,21.60
2018-02-12T19:55:28.064Z,22.27
2018-02-12T19:57:55.557Z,26.80
2018-02-12T20:00:23.028Z,19.37
2018-02-12T20:02:50.640Z,21.67
2018-02-12T20:05:18.239Z,18.37
2018-02-12T20:07:45.862Z,18.47
2018-02-12T20:10:14.129Z,31.57
2018-02-12T20:12:41.696Z,20.17
2018-02-12T20:15:09.255Z,24.20
2018-02-12T20:17:36.816Z,17.53
2018-02-12T20:20:04.375Z,24.67
2018-02-12T20:22:31.833Z,21.27
2018-02-12T20:24:59.392Z,26.87
2018-02-12T20:27:26.951Z,23.63
2018-02-12T20:29:54.616Z,23.43
2018-02-12T20:32:22.209Z,29.17
2018-02-12T20:34:49.732Z,30.43
2018-02-12T20:37:17.393Z,60.90
2018-02-12T20:39:44.952Z,44.93
2018-02-12T20:42:12.512Z,25.50
2018-02-12T20:44:39.969Z,25.87
2018-02-12T20:47:07.529Z,25.80
2018-02-12T20:49:35.087Z,20.60
2018-02-12T20:52:02.546Z,27.27
2018-02-12T20:54:30.105Z,29.50
2018-02-12T20:56:57.663Z,23.53
2018-02-12T20:59:25.735Z,23.17
2018-02-12T21:01:53.228Z,24.27
2018-02-12T21:04:20.688Z,24.00
2018-02-12T21:06:48.087Z,19.33
2018-02-12T21:09:15.677Z,22.67
2018-02-12T21:11:43.225Z,23.10
2018-02-12T21:14:10.785Z,27.13
2018-02-12T21:16:38.344Z,22.00
2018-02-12T21:19:05.907Z,22.50
2018-02-12T21:21:33.462Z,26.30
2018-02-12T21:24:01.022Z,27.53
2018-02-12T21:26:28.581Z,25.90
2018-02-12T21:28:55.992Z,21.67
2018-02-12T21:31:27.079Z,21.40
2018-02-12T21:33:54.741Z,18.83
2018-02-12T21:36:22.236Z,24.40
2018-02-12T21:38:49.692Z,25.60
2018-02-12T21:41:17.216Z,25.80
2018-02-12T21:43:44.774Z,23.13
2018-02-12T21:46:12.334Z,22.10
2018-02-12T21:48:39.893Z,21.50
2018-02-12T21:51:07.453Z,21.00
2018-02-12T21:53:34.911Z,21.80
2018-02-12T21:56:02.469Z,22.23
2018-02-12T21:58:30.029Z,21.23
2018-02-12T22:00:57.519Z,28.50
2018-02-12T22:03:24.963Z,20.80
2018-02-12T22:05:52.507Z,23.33
2018-02-12T22:08:20.062Z,21.83
2018-02-12T22:10:47.723Z,20.60
2018-02-12T22:13:15.282Z,21.77
2018-02-12T22:15:42.841Z,32.20
2018-02-12T22:18:10.402Z,22.87
2018-02-12T22:20:37.857Z,30.20
2018-02-12T22:23:05.418Z,26.17
2018-02-12T22:25:32.876Z,29.73
2018-02-12T22:28:00.438Z,27.60
2018-02-12T22:30:27.994Z,26.60
2018-02-12T22:32:55.553Z,33.70
2018-02-12T22:35:23.112Z,32.27
2018-02-12T22:37:50.676Z,26.00
2018-02-12T22:40:18.231Z,31.53
2018-02-12T22:42:45.726Z,29.80
2018-02-12T22:45:13.388Z,26.70
2018-02-12T22:47:40.910Z,28.50
2018-02-12T22:50:08.404Z,26.50
2018-02-12T22:52:36.131Z,32.23
2018-02-12T22:55:03.632Z,33.20
2018-02-12T22:57:31.251Z,25.43
2018-02-12T22:59:58.810Z,32.03
2018-02-12T23:02:26.267Z,24.60
2018-02-12T23:04:53.929Z,27.23
2018-02-12T23:07:21.487Z,24.30
2018-02-12T23:09:49.048Z,29.33
2018-02-12T23:12:16.544Z,25.57
2018-02-12T23:14:43.984Z,23.63
2018-02-12T23:17:15.279Z,25.67
2018-02-12T23:19:42.862Z,22.30
2018-02-12T23:22:10.428Z,25.20
2018-02-12T23:24:37.923Z,27.13
2018-02-12T23:27:05.445Z,24.27
2018-02-12T23:29:33.005Z,23.50
2018-02-12T23:32:00.563Z,21.50
2018-02-12T23:34:28.123Z,26.80
2018-02-12T23:36:55.682Z,25.10
2018-02-12T23:39:23.242Z,21.77
2018-02-12T23:41:50.801Z,22.73
2018-02-12T23:44:18.310Z,22.20
2018-02-12T23:46:45.772Z,27.33
2018-02-12T23:49:13.301Z,25.27
2018-02-12T23:51:40.835Z,22.00
2018-02-12T23:54:08.429Z,23.63
2018-02-12T23:56:35.953Z,25.30
2018-02-12T23:59:03.512Z,28.60
